createdAt,value
2023-02-20T00:01:01.457Z,96909.13
2023-02-20T00:03:28.725Z,96910.97
2023-02-20T00:05:55.973Z,96907.28
2023-02-20T00:08:26.501Z,96906.50
2023-02-20T00:14:12.583Z,96905.81
2023-02-20T00:16:55.927Z,96902.91
2023-02-20T00:19:23.177Z,96906.63
2023-02-20T00:21:53.064Z,96896.00
2023-02-20T00:24:31.581Z,96902.13
2023-02-20T00:27:01.760Z,96902.69
2023-02-20T00:29:44.793Z,96903.50
2023-02-20T00:32:13.158Z,96903.25
2023-02-20T00:34:43.079Z,96905.91
2023-02-20T00:37:13.201Z,96901.63
2023-02-20T00:39:41.001Z,96907.75
2023-02-20T00:42:12.130Z,96903.50
2023-02-20T00:44:42.151Z,96896.34
2023-02-20T00:47:09.423Z,96893.94
2023-02-20T00:49:36.538Z,96895.22
2023-02-20T00:52:26.212Z,96899.69
2023-02-20T00:54:53.459Z,96896.81
2023-02-20T00:57:20.827Z,96900.03
2023-02-20T00:59:55.440Z,96896.34
2023-02-20T01:02:25.847Z,96889.19
2023-02-20T01:05:00.973Z,96891.59
2023-02-20T01:07:30.404Z,96893.22
2023-02-20T01:10:08.841Z,96891.59
2023-02-20T01:12:41.779Z,96891.28
2023-02-20T01:15:18.445Z,96898.09
2023-02-20T01:17:46.448Z,96892.44
2023-02-20T01:20:13.600Z,96894.03
2023-02-20T01:22:49.397Z,96902.69
2023-02-20T01:25:16.878Z,96895.00
2023-02-20T01:27:44.593Z,96900.53
2023-02-20T01:30:25.960Z,96896.25
2023-02-20T01:32:53.019Z,96902.13
2023-02-20T01:35:20.005Z,96893.72
2023-02-20T01:37:46.948Z,96904.31
2023-02-20T01:40:16.435Z,96904.06
2023-02-20T01:42:43.342Z,96898.22
2023-02-20T01:45:27.649Z,96908.25
2023-02-20T01:47:57.365Z,96908.72
2023-02-20T01:50:29.809Z,96908.94
2023-02-20T01:52:59.347Z,96903.88
2023-02-20T01:55:44.656Z,96904.94
2023-02-20T01:58:17.767Z,96900.09
2023-02-20T02:00:44.794Z,96897.13
2023-02-20T02:03:31.680Z,96900.56
2023-02-20T02:06:00.523Z,96903.22
2023-02-20T02:08:28.837Z,96904.25
2023-02-20T02:11:04.001Z,96903.69
2023-02-20T02:13:35.371Z,96908.66
2023-02-20T02:16:21.385Z,96910.69
2023-02-20T02:19:05.330Z,96923.38
2023-02-20T02:21:55.245Z,96914.88
2023-02-20T02:24:24.373Z,96918.56
2023-02-20T02:27:10.166Z,96922.81
2023-02-20T02:29:55.919Z,96928.91
2023-02-20T02:32:41.446Z,96927.31
2023-02-20T02:35:08.310Z,96933.16
2023-02-20T02:37:35.055Z,96935.59
2023-02-20T02:40:20.870Z,96936.19
2023-02-20T02:43:02.968Z,96942.84
2023-02-20T02:45:38.133Z,96939.41
2023-02-20T02:48:08.226Z,96940.44
2023-02-20T02:50:37.159Z,96932.94
2023-02-20T02:53:04.936Z,96931.31
2023-02-20T02:55:33.977Z,96938.69
2023-02-20T02:58:01.557Z,96936.28
2023-02-20T03:00:44.033Z,96937.09
2023-02-20T03:03:21.219Z,96932.03
2023-02-20T03:05:55.506Z,96931.47
2023-02-20T03:08:22.566Z,96928.47
2023-02-20T03:10:53.559Z,96923.66
2023-02-20T03:13:44.352Z,96928.59
2023-02-20T03:16:14.914Z,96924.00
2023-02-20T03:18:42.112Z,96927.56
2023-02-20T03:21:15.815Z,96922.72
2023-02-20T03:23:45.345Z,96931.38
2023-02-20T03:26:18.854Z,96931.84
2023-02-20T03:28:59.155Z,96933.69
2023-02-20T03:31:29.258Z,96936.78
2023-02-20T03:34:24.605Z,96935.97
2023-02-20T03:37:14.243Z,96935.41
2023-02-20T03:40:04.240Z,96940.94
2023-02-20T03:42:53.698Z,96938.75
2023-02-20T03:45:28.204Z,96938.19
2023-02-20T03:47:57.842Z,96945.31
2023-02-20T03:50:47.016Z,96946.69
2023-02-20T03:53:17.823Z,96942.53
2023-02-20T03:55:46.460Z,96946.81
2023-02-20T03:58:14.855Z,96944.16
2023-02-20T04:00:45.446Z,96943.56
2023-02-20T04:03:16.566Z,96936.09
2023-02-20T04:05:47.934Z,96939.44
2023-02-20T04:08:23.851Z,96951.63
2023-02-20T04:11:00.121Z,96948.19
2023-02-20T04:13:27.559Z,96936.78
2023-02-20T04:15:57.192Z,96948.75
2023-02-20T04:18:24.465Z,96950.13
2023-02-20T04:20:56.131Z,96957.28
2023-02-20T04:23:35.365Z,96955.09
2023-02-20T04:26:08.524Z,96958.19
2023-02-20T04:28:37.823Z,96959.00
2023-02-20T04:31:07.514Z,96959.81
2023-02-20T04:33:36.562Z,96955.66
2023-02-20T04:36:09.327Z,96953.59
2023-02-20T04:38:36.599Z,96954.16
2023-02-20T04:41:06.664Z,96953.94
2023-02-20T04:43:33.545Z,96951.28
2023-02-20T04:46:00.843Z,96959.22
2023-02-20T04:48:28.292Z,96956.13
2023-02-20T04:50:58.364Z,96958.75
2023-02-20T04:53:26.705Z,96954.28
2023-02-20T04:55:53.621Z,96960.38
2023-02-20T04:58:23.991Z,96969.34
2023-02-20T05:01:11.221Z,96963.47
2023-02-20T05:03:38.192Z,96969.81
2023-02-20T05:06:05.226Z,96978.34
2023-02-20T05:08:32.576Z,96968.88
2023-02-20T05:10:59.742Z,96973.72
2023-02-20T05:13:26.743Z,96974.06
2023-02-20T05:15:53.837Z,96976.47
2023-02-20T05:18:24.700Z,96977.66
2023-02-20T05:21:10.461Z,96969.72
2023-02-20T05:23:37.798Z,96971.09
2023-02-20T05:26:12.442Z,96975.34
2023-02-20T05:28:43.092Z,96974.09
2023-02-20T05:31:09.908Z,96974.41
2023-02-20T05:33:36.948Z,96982.94
2023-02-20T05:36:04.336Z,96979.03
2023-02-20T05:38:31.390Z,96983.03
2023-02-20T05:41:00.033Z,96979.38
2023-02-20T05:43:27.910Z,96983.63
2023-02-20T05:45:56.910Z,96980.97
2023-02-20T05:48:24.158Z,96989.59
2023-02-20T05:50:51.486Z,96990.41
2023-02-20T05:53:18.957Z,96983.03
2023-02-20T05:55:48.810Z,96987.66
2023-02-20T05:58:18.101Z,96998.00
2023-02-20T06:00:45.432Z,96990.88
2023-02-20T06:03:16.893Z,96999.84
2023-02-20T06:05:47.243Z,96995.38
2023-02-20T06:08:16.347Z,96995.94
2023-02-20T06:10:43.664Z,96997.56
2023-02-20T06:13:11.054Z,97001.25
2023-02-20T06:15:38.600Z,97015.06
2023-02-20T06:18:06.370Z,97006.88
2023-02-20T06:20:38.123Z,97004.78
2023-02-20T06:23:06.200Z,97017.25
2023-02-20T06:25:33.693Z,97017.47
2023-02-20T06:28:01.520Z,97021.25
2023-02-20T06:30:28.709Z,97016.06
2023-02-20T06:32:56.531Z,97025.72
2023-02-20T06:35:24.293Z,97023.22
2023-02-20T06:37:51.551Z,97009.50
2023-02-20T06:40:18.733Z,97016.75
2023-02-20T06:42:50.772Z,97018.34
2023-02-20T06:45:22.534Z,97022.38
2023-02-20T06:47:50.123Z,97017.75
2023-02-20T06:50:17.754Z,97025.78
2023-02-20T06:52:44.968Z,97021.06
2023-02-20T06:55:12.059Z,97026.50
2023-02-20T06:57:40.692Z,97019.69
2023-02-20T07:00:08.508Z,97023.22
2023-02-20T07:02:38.934Z,97026.44
2023-02-20T07:05:12.030Z,97027.81
2023-02-20T07:07:42.717Z,97037.25
2023-02-20T07:10:18.575Z,97023.88
2023-02-20T07:12:47.911Z,97027.66
2023-02-20T07:15:28.549Z,97022.44
2023-02-20T07:18:11.631Z,97029.19
2023-02-20T07:21:01.107Z,97022.94
2023-02-20T07:23:32.018Z,97032.16
2023-02-20T07:25:59.509Z,97035.44
2023-02-20T07:28:31.280Z,97044.31
2023-02-20T07:31:02.897Z,97047.59
2023-02-20T07:33:34.797Z,97046.44
2023-02-20T07:36:02.079Z,97038.06
2023-02-20T07:38:33.910Z,97049.88
2023-02-20T07:41:01.221Z,97047.91
2023-02-20T07:43:30.055Z,97043.47
2023-02-20T07:46:04.805Z,97035.75
2023-02-20T07:48:34.990Z,97045.00
2023-02-20T07:51:02.445Z,97049.97
2023-02-20T07:53:29.905Z,97054.41
2023-02-20T07:55:58.960Z,97056.50
2023-02-20T07:58:26.509Z,97050.63
2023-02-20T08:00:54.686Z,97058.66
2023-02-20T08:03:22.406Z,97059.66
2023-02-20T08:05:50.169Z,97056.66
2023-02-20T08:08:17.765Z,97058.91
2023-02-20T08:10:45.563Z,97059.81
2023-02-20T08:13:12.543Z,97054.31
2023-02-20T08:15:39.812Z,97056.81
2023-02-20T08:18:15.626Z,97068.56
2023-02-20T08:20:50.326Z,97064.28
2023-02-20T08:23:19.205Z,97062.69
2023-02-20T08:25:46.398Z,97061.38
2023-02-20T08:28:26.121Z,97066.22
2023-02-20T08:30:53.300Z,97065.41
2023-02-20T08:33:23.086Z,97067.00
2023-02-20T08:35:55.725Z,97068.97
2023-02-20T08:38:37.159Z,97078.31
2023-02-20T08:41:06.964Z,97087.41
2023-02-20T08:43:44.272Z,97094.66
2023-02-20T08:46:11.734Z,97089.69
2023-02-20T08:48:39.136Z,97086.88
2023-02-20T08:51:09.827Z,97083.75
2023-02-20T08:53:38.564Z,97078.16
2023-02-20T08:56:06.830Z,97076.88
2023-02-20T08:58:35.063Z,97081.69
2023-02-20T09:01:02.221Z,97075.63
2023-02-20T09:03:30.225Z,97061.88
2023-02-20T09:06:00.453Z,97065.97
2023-02-20T09:08:28.245Z,97067.66
2023-02-20T09:10:55.406Z,97067.97
2023-02-20T09:13:23.766Z,97073.84
2023-02-20T09:15:52.389Z,97068.28
2023-02-20T09:18:19.750Z,97080.03
2023-02-20T09:20:48.438Z,97080.06
2023-02-20T09:23:15.967Z,97080.38
2023-02-20T09:25:43.441Z,97077.22
2023-02-20T09:28:10.658Z,97088.56
2023-02-20T09:30:38.019Z,97084.44
2023-02-20T09:33:05.513Z,97094.13
2023-02-20T09:35:33.255Z,97094.50
2023-02-20T09:38:11.281Z,97095.34
2023-02-20T09:40:46.130Z,97092.91
2023-02-20T09:43:18.670Z,97095.81
2023-02-20T09:45:58.766Z,97087.09
2023-02-20T09:48:38.548Z,97080.34
2023-02-20T09:51:14.954Z,97084.44
2023-02-20T09:53:44.995Z,97080.59
2023-02-20T09:56:16.334Z,97078.06
2023-02-20T09:58:54.522Z,97080.41
2023-02-20T10:01:23.515Z,97088.59
2023-02-20T10:03:53.546Z,97081.59
2023-02-20T10:06:21.903Z,97079.91
2023-02-20T10:08:50.568Z,97081.50
2023-02-20T10:11:26.716Z,97065.19
2023-02-20T10:14:00.867Z,97072.25
2023-02-20T10:16:51.196Z,97071.31
2023-02-20T10:19:36.728Z,97075.66
2023-02-20T10:22:03.741Z,97076.41
2023-02-20T10:24:49.641Z,97068.09
2023-02-20T10:27:46.872Z,97081.47
2023-02-20T10:30:16.064Z,97076.41
2023-02-20T10:32:45.727Z,97084.03
2023-02-20T10:35:18.797Z,97088.59
2023-02-20T10:37:48.788Z,97087.63
2023-02-20T10:40:34.735Z,97075.63
2023-02-20T10:43:05.203Z,97081.88
2023-02-20T10:45:42.713Z,97072.75
2023-02-20T10:48:11.081Z,97081.69
2023-02-20T10:50:45.635Z,97074.03
2023-02-20T10:53:27.928Z,97079.19
2023-02-20T10:56:09.391Z,97075.59
2023-02-20T10:58:55.239Z,97080.97
2023-02-20T11:01:24.007Z,97068.66
2023-02-20T11:04:05.078Z,97078.16
2023-02-20T11:06:59.868Z,97077.00
2023-02-20T11:09:37.415Z,97079.50
2023-02-20T11:12:32.653Z,97074.19
2023-02-20T11:15:26.245Z,97070.56
2023-02-20T11:17:54.507Z,97062.78
2023-02-20T11:20:31.321Z,97067.63
2023-02-20T11:22:59.007Z,97062.00
2023-02-20T11:25:30.472Z,97070.91
2023-02-20T11:27:58.638Z,97074.19
2023-02-20T11:30:36.129Z,97074.50
2023-02-20T11:33:03.638Z,97074.88
2023-02-20T11:35:33.621Z,97084.03
2023-02-20T11:38:18.796Z,97085.56
2023-02-20T11:40:47.655Z,97092.28
2023-02-20T11:43:14.437Z,97082.84
2023-02-20T11:45:42.020Z,97090.63
2023-02-20T11:48:10.747Z,97095.72
2023-02-20T11:50:40.849Z,97097.34
2023-02-20T11:53:17.537Z,97100.16
2023-02-20T11:55:54.915Z,97090.25
2023-02-20T11:58:27.578Z,97105.94
2023-02-20T12:00:55.639Z,97090.38
2023-02-20T12:03:28.677Z,97096.25
2023-02-20T12:05:56.083Z,97107.09
2023-02-20T12:08:22.869Z,97096.81
2023-02-20T12:10:52.545Z,97102.22
2023-02-20T12:13:19.378Z,97103.94
2023-02-20T12:15:58.895Z,97102.78
2023-02-20T12:18:25.975Z,97097.28
2023-02-20T12:21:02.353Z,97106.59
2023-02-20T12:23:44.639Z,97101.66
2023-02-20T12:26:30.449Z,97099.91
2023-02-20T12:29:12.628Z,97101.88
2023-02-20T12:31:42.826Z,97104.28
2023-02-20T12:34:10.180Z,97105.91
2023-02-20T12:36:40.034Z,97106.50
2023-02-20T12:39:13.947Z,97106.28
2023-02-20T12:41:55.107Z,97108.13
2023-02-20T12:44:23.230Z,97104.66
2023-02-20T12:46:53.312Z,97109.59
2023-02-20T12:49:41.625Z,97110.84
2023-02-20T12:52:08.415Z,97115.81
2023-02-20T12:54:44.464Z,97115.91
2023-02-20T12:57:23.484Z,97106.00
2023-02-20T13:00:01.590Z,97103.38
2023-02-20T13:02:42.284Z,97105.22
2023-02-20T13:05:15.643Z,97103.38
2023-02-20T13:07:45.560Z,97094.50
2023-02-20T13:10:23.201Z,97090.66
2023-02-20T13:12:51.321Z,97092.75
2023-02-20T13:15:38.671Z,97094.56
2023-02-20T13:18:22.678Z,97095.84
2023-02-20T13:20:55.225Z,97089.75
2023-02-20T13:23:22.328Z,97088.69
2023-02-20T13:25:50.712Z,97093.19
2023-02-20T13:28:20.763Z,97094.22
2023-02-20T13:31:08.210Z,97098.72
2023-02-20T13:33:37.490Z,97100.56
2023-02-20T13:36:05.761Z,97096.88
2023-02-20T13:38:33.292Z,97097.44
2023-02-20T13:41:09.853Z,97099.06
2023-02-20T13:43:37.468Z,97096.06
2023-02-20T13:46:10.616Z,97099.41
2023-02-20T13:48:37.675Z,97096.06
2023-02-20T13:51:16.735Z,97099.38
2023-02-20T13:53:46.873Z,97104.56
2023-02-20T13:56:17.062Z,97100.72
2023-02-20T13:58:44.964Z,97107.50
2023-02-20T14:01:12.304Z,97108.75
2023-02-20T14:03:39.381Z,97102.53
2023-02-20T14:06:08.365Z,97108.72
2023-02-20T14:08:36.654Z,97104.31
2023-02-20T14:11:10.438Z,97102.31
2023-02-20T14:13:42.387Z,97112.56
2023-02-20T14:20:13.439Z,97116.09
2023-02-20T14:22:41.431Z,97116.53
2023-02-20T14:25:17.577Z,97121.47
2023-02-20T14:27:45.410Z,97114.44
2023-02-20T14:30:14.215Z,97121.78
2023-02-20T14:32:52.052Z,97119.13
2023-02-20T14:35:33.123Z,97115.28
2023-02-20T14:38:07.452Z,97125.06
2023-02-20T14:40:37.216Z,97114.47
2023-02-20T14:43:09.321Z,97125.88
2023-02-20T14:45:36.304Z,97120.56
2023-02-20T14:48:05.100Z,97129.31
2023-02-20T14:50:34.697Z,97131.16
2023-02-20T14:53:21.774Z,97134.38
2023-02-20T14:55:52.109Z,97131.53
2023-02-20T14:58:20.805Z,97135.81
2023-02-20T15:00:54.212Z,97135.81
2023-02-20T15:03:30.300Z,97131.97
2023-02-20T15:06:33.526Z,97135.41
2023-02-20T15:09:39.118Z,97126.53
2023-02-20T15:12:18.936Z,97128.81
2023-02-20T15:14:46.137Z,97122.94
2023-02-20T15:17:13.085Z,97128.22
2023-02-20T15:19:41.414Z,97130.88
2023-02-20T15:22:27.210Z,97128.22
2023-02-20T15:24:54.560Z,97128.44
2023-02-20T15:27:27.590Z,97131.09
2023-02-20T15:30:09.509Z,97127.19
2023-02-20T15:32:39.317Z,97121.09
2023-02-20T15:35:06.620Z,97125.81
2023-02-20T15:37:38.899Z,97124.19
2023-02-20T15:40:29.150Z,97118.09
2023-02-20T15:43:04.409Z,97121.56
2023-02-20T15:45:32.086Z,97121.31
2023-02-20T15:47:59.421Z,97119.28
2023-02-20T15:50:27.527Z,97119.63
2023-02-20T15:52:55.122Z,97117.56
2023-02-20T15:55:23.081Z,97109.63
2023-02-20T15:57:51.191Z,97118.75
2023-02-20T16:00:23.015Z,97110.41
2023-02-20T16:02:54.128Z,97109.13
2023-02-20T16:05:21.327Z,97112.38
2023-02-20T16:08:14.107Z,97111.56
2023-02-20T16:10:41.581Z,97103.41
2023-02-20T16:13:34.350Z,97105.47
2023-02-20T16:16:30.260Z,97101.44
2023-02-20T16:19:42.079Z,97113.03
2023-02-20T16:22:15.173Z,97100.47
2023-02-20T16:24:56.880Z,97105.38
2023-02-20T16:34:10.506Z,97108.34
2023-02-20T16:42:20.908Z,97093.28
2023-02-20T16:45:21.384Z,97086.59
2023-02-20T16:54:36.471Z,97073.47
2023-02-20T16:57:29.924Z,97067.44
2023-02-20T17:00:12.639Z,97068.91
2023-02-20T17:03:35.210Z,97069.13
2023-02-20T17:06:02.231Z,97066.47
2023-02-20T17:08:29.365Z,97065.69
2023-02-20T17:11:05.695Z,97054.53
2023-02-20T17:13:32.857Z,97058.78
2023-02-20T17:15:59.918Z,97049.25
2023-02-20T17:18:30.402Z,97051.88
2023-02-20T17:21:15.043Z,97051.06
2023-02-20T17:23:51.104Z,97046.00
2023-02-20T17:26:18.400Z,97039.69
2023-02-20T17:28:52.491Z,97036.84
2023-02-20T17:31:23.194Z,97031.34
2023-02-20T17:33:51.322Z,97030.97
2023-02-20T17:36:45.596Z,97022.69
2023-02-20T17:39:19.228Z,97020.03
2023-02-20T17:41:46.911Z,97020.03
2023-02-20T17:44:18.775Z,97018.44
2023-02-20T17:46:56.761Z,97018.44
2023-02-20T17:49:32.191Z,97013.38
2023-02-20T17:52:00.364Z,97011.31
2023-02-20T17:54:28.546Z,97008.81
2023-02-20T17:57:03.782Z,97005.13
2023-02-20T17:59:43.221Z,97006.97
2023-02-20T18:02:14.210Z,97008.00
2023-02-20T18:04:42.761Z,97005.94
2023-02-20T18:07:12.918Z,97001.69
2023-02-20T18:09:41.091Z,97012.25
2023-02-20T18:12:10.446Z,97004.09
2023-02-20T18:14:43.484Z,97006.06
2023-02-20T18:17:12.386Z,97007.84
2023-02-20T18:19:45.641Z,97003.97
2023-02-20T18:22:16.617Z,97005.34
2023-02-20T18:24:58.986Z,97002.47
2023-02-20T18:27:35.181Z,97003.88
2023-02-20T18:30:02.508Z,97004.66
2023-02-20T18:32:45.341Z,96994.31
2023-02-20T18:35:16.945Z,96999.03
2023-02-20T18:37:44.424Z,96994.78
2023-02-20T18:40:12.391Z,96997.88
2023-02-20T18:42:40.017Z,96990.97
2023-02-20T18:45:07.151Z,96998.50
2023-02-20T18:47:34.514Z,96991.84
2023-02-20T18:50:02.533Z,96984.56
2023-02-20T18:52:34.641Z,96988.69
2023-02-20T18:55:02.320Z,96985.91
2023-02-20T18:57:29.724Z,96984.53
2023-02-20T18:59:57.063Z,96987.63
2023-02-20T19:02:26.298Z,96982.34
2023-02-20T19:04:58.197Z,96978.09
2023-02-20T19:07:25.409Z,96978.53
2023-02-20T19:09:54.414Z,96981.59
2023-02-20T19:12:21.329Z,96982.25
2023-02-20T19:14:48.214Z,96981.09
2023-02-20T19:17:15.030Z,96979.91
2023-02-20T19:19:42.631Z,96971.84
2023-02-20T19:22:09.568Z,96970.47
2023-02-20T19:24:39.729Z,96961.94
2023-02-20T19:27:06.580Z,96964.81
2023-02-20T19:29:33.421Z,96962.41
2023-02-20T19:32:00.460Z,96964.44
2023-02-20T19:34:27.474Z,96956.72
2023-02-20T19:36:54.861Z,96961.41
2023-02-20T19:39:22.107Z,96952.69
2023-02-20T19:41:49.848Z,96952.09
2023-02-20T19:44:17.172Z,96950.50
2023-02-20T19:46:44.363Z,96942.00
2023-02-20T19:49:13.028Z,96936.94
2023-02-20T19:51:45.224Z,96940.59
2023-02-20T19:54:12.080Z,96937.97
2023-02-20T19:56:38.888Z,96936.13
2023-02-20T19:59:05.684Z,96935.31
2023-02-20T20:01:32.658Z,96924.19
2023-02-20T20:03:59.622Z,96924.03
2023-02-20T20:06:27.288Z,96914.16
2023-02-20T20:09:11.013Z,96916.84
2023-02-20T20:11:40.529Z,96915.06
2023-02-20T20:14:07.318Z,96912.31
2023-02-20T20:16:37.748Z,96900.81
2023-02-20T20:19:05.518Z,96905.38
2023-02-20T20:21:32.729Z,96900.13
2023-02-20T20:23:59.853Z,96899.41
2023-02-20T20:26:27.782Z,96898.00
2023-02-20T20:28:54.655Z,96895.00
2023-02-20T20:31:22.255Z,96889.78
2023-02-20T20:33:49.116Z,96888.63
2023-02-20T20:36:16.527Z,96884.78
2023-02-20T20:38:43.349Z,96879.34
2023-02-20T20:41:11.611Z,96886.88
2023-02-20T20:43:38.663Z,96883.88
2023-02-20T20:46:05.538Z,96881.88
2023-02-20T20:48:32.547Z,96872.00
2023-02-20T20:50:59.461Z,96867.59
2023-02-20T20:53:26.330Z,96871.66
2023-02-20T20:55:58.862Z,96870.03
2023-02-20T20:58:25.827Z,96874.50
2023-02-20T21:00:54.913Z,96865.00
2023-02-20T21:03:21.683Z,96867.84
2023-02-20T21:05:48.883Z,96855.53
2023-02-20T21:08:15.940Z,96855.97
2023-02-20T21:11:01.005Z,96854.13
2023-02-20T21:13:27.866Z,96851.50
2023-02-20T21:15:54.743Z,96849.09
2023-02-20T21:18:21.680Z,96847.91
2023-02-20T21:20:48.411Z,96842.84
2023-02-20T21:23:16.243Z,96842.03
2023-02-20T21:25:43.154Z,96837.59
2023-02-20T21:28:10.016Z,96831.50
2023-02-20T21:30:36.966Z,96827.28
2023-02-20T21:33:04.013Z,96827.69
2023-02-20T21:35:30.782Z,96828.91
2023-02-20T21:37:57.794Z,96833.59
2023-02-20T21:40:24.833Z,96817.19
2023-02-20T21:43:10.291Z,96817.19
2023-02-20T21:45:37.833Z,96813.53
2023-02-20T21:48:05.428Z,96810.69
2023-02-20T21:50:32.248Z,96808.06
2023-02-20T21:52:59.165Z,96815.75
2023-02-20T21:55:26.909Z,96817.34
2023-02-20T21:57:54.142Z,96812.50
2023-02-20T22:00:21.554Z,96809.72
2023-02-20T22:02:48.361Z,96797.56
2023-02-20T22:05:15.121Z,96803.22
2023-02-20T22:08:00.514Z,96795.91
2023-02-20T22:10:46.264Z,96787.00
2023-02-20T22:13:31.616Z,96783.34
2023-02-20T22:16:17.283Z,96787.78
2023-02-20T22:19:04.045Z,96779.09
2023-02-20T22:21:49.487Z,96785.75
2023-02-20T22:24:39.335Z,96781.50
2023-02-20T22:27:25.620Z,96778.28
2023-02-20T22:30:11.238Z,96772.44
2023-02-20T22:32:57.077Z,96772.84
2023-02-20T22:35:44.545Z,96765.97
2023-02-20T22:38:30.604Z,96764.38
2023-02-20T22:41:16.264Z,96769.03
2023-02-20T22:44:02.250Z,96763.41
2023-02-20T22:46:47.662Z,96754.50
2023-02-20T22:49:33.182Z,96757.72
2023-02-20T22:52:18.770Z,96757.56
2023-02-20T22:55:05.817Z,96762.00
2023-02-20T22:57:51.641Z,96757.34
2023-02-20T23:00:37.313Z,96751.63
2023-02-20T23:03:22.809Z,96749.59
2023-02-20T23:06:17.537Z,96750.19
2023-02-20T23:09:03.781Z,96744.53
2023-02-20T23:11:51.594Z,96740.88
2023-02-20T23:14:37.128Z,96737.00
2023-02-20T23:17:34.991Z,96730.13
2023-02-20T23:20:25.490Z,96726.69
2023-02-20T23:23:11.441Z,96731.38
2023-02-20T23:25:57.116Z,96721.66
2023-02-20T23:28:42.505Z,96722.69
2023-02-20T23:31:28.001Z,96719.44
2023-02-20T23:34:13.539Z,96720.25
2023-02-20T23:37:03.465Z,96719.66
2023-02-20T23:39:49.013Z,96718.28
2023-02-20T23:42:35.628Z,96711.63
2023-02-20T23:45:21.485Z,96707.38
2023-02-20T23:48:07.856Z,96713.22
2023-02-20T23:50:53.455Z,96712.22
2023-02-20T23:53:38.978Z,96712.00
2023-02-20T23:56:25.131Z,96709.34
2023-02-20T23:59:10.536Z,96710.97
